createdAt,value
2024-01-16T00:00:40.413Z,-0.96
2024-01-16T00:03:07.052Z,-0.81
2024-01-16T00:05:33.593Z,-0.85
2024-01-16T00:08:00.032Z,-1.02
2024-01-16T00:10:26.457Z,-0.86
2024-01-16T00:12:52.936Z,-0.91
2024-01-16T00:15:19.335Z,-0.96
2024-01-16T00:17:45.969Z,-1.12
2024-01-16T00:20:12.775Z,-1.01
2024-01-16T00:22:39.137Z,-1.08
2024-01-16T00:25:06.057Z,-1.16
2024-01-16T00:27:32.565Z,-1.20
2024-01-16T00:29:59.073Z,-1.18
2024-01-16T00:32:25.783Z,-1.10
2024-01-16T00:34:52.170Z,-0.95
2024-01-16T00:37:18.910Z,-0.94
2024-01-16T00:39:45.446Z,-0.85
2024-01-16T00:42:12.031Z,-1.07
2024-01-16T00:44:41.552Z,-0.77
2024-01-16T00:47:08.126Z,-0.86
2024-01-16T00:49:36.571Z,-0.79
2024-01-16T00:52:03.103Z,-0.88
2024-01-16T00:54:29.672Z,-0.95
2024-01-16T00:56:56.151Z,-0.99
2024-01-16T00:59:22.577Z,-1.04
2024-01-16T01:01:48.952Z,-1.14
2024-01-16T01:04:15.430Z,-1.19
2024-01-16T01:06:42.057Z,-1.16
2024-01-16T01:09:08.417Z,-1.30
2024-01-16T01:11:34.922Z,-1.21
2024-01-16T01:14:01.393Z,-1.20
2024-01-16T01:16:27.897Z,-1.23
2024-01-16T01:18:54.484Z,-1.25
2024-01-16T01:21:21.231Z,-1.22
2024-01-16T01:23:47.951Z,-1.29
2024-01-16T01:26:14.624Z,-1.31
2024-01-16T01:28:41.740Z,-1.21
2024-01-16T01:31:14.591Z,-1.27
2024-01-16T01:33:41.609Z,-1.29
2024-01-16T01:36:08.226Z,-1.37
2024-01-16T01:38:34.858Z,-1.42
2024-01-16T01:41:01.313Z,-1.33
2024-01-16T01:43:27.797Z,-1.29
2024-01-16T01:46:09.333Z,-1.31
2024-01-16T01:48:36.781Z,-1.31
2024-01-16T01:51:03.616Z,-1.41
2024-01-16T01:53:32.083Z,-1.50
2024-01-16T01:56:05.084Z,-1.40
2024-01-16T01:58:31.637Z,-1.34
2024-01-16T02:00:58.300Z,-1.37
2024-01-16T02:03:28.523Z,-1.30
2024-01-16T02:05:55.849Z,-1.37
2024-01-16T02:08:23.273Z,-1.47
2024-01-16T02:10:51.168Z,-1.27
2024-01-16T02:13:17.664Z,-1.41
2024-01-16T02:15:44.316Z,-1.43
2024-01-16T02:18:10.767Z,-1.34
2024-01-16T02:20:37.391Z,-1.44
2024-01-16T02:23:05.250Z,-1.38
2024-01-16T02:25:32.109Z,-1.41
2024-01-16T02:27:58.658Z,-1.39
2024-01-16T02:30:25.113Z,-1.38
2024-01-16T02:32:51.755Z,-1.47
2024-01-16T02:35:18.463Z,-1.39
2024-01-16T02:37:45.302Z,-1.31
2024-01-16T02:40:12.431Z,-1.48
2024-01-16T02:42:38.948Z,-1.39
2024-01-16T02:45:06.671Z,-1.39
2024-01-16T02:47:33.680Z,-1.44
2024-01-16T02:50:01.004Z,-1.43
2024-01-16T02:52:27.625Z,-1.39
2024-01-16T02:54:54.073Z,-1.47
2024-01-16T02:57:20.657Z,-1.54
2024-01-16T02:59:47.785Z,-1.71
2024-01-16T03:02:14.550Z,-1.65
2024-01-16T03:04:41.199Z,-1.51
2024-01-16T03:07:07.582Z,-1.58
2024-01-16T03:09:34.097Z,-1.68
2024-01-16T03:12:01.205Z,-1.53
2024-01-16T03:14:27.681Z,-1.51
2024-01-16T03:16:54.060Z,-1.59
2024-01-16T03:19:20.621Z,-1.50
2024-01-16T03:21:49.750Z,-1.52
2024-01-16T03:24:16.247Z,-1.52
2024-01-16T03:26:42.624Z,-1.54
2024-01-16T03:29:09.116Z,-1.52
2024-01-16T03:31:35.706Z,-1.57
2024-01-16T03:34:02.256Z,-1.57
2024-01-16T03:36:28.989Z,-1.66
2024-01-16T03:38:55.555Z,-1.76
2024-01-16T03:41:22.064Z,-1.73
2024-01-16T03:43:48.618Z,-1.82
2024-01-16T03:46:15.175Z,-1.75
2024-01-16T03:48:41.725Z,-1.74
2024-01-16T03:51:08.256Z,-1.80
2024-01-16T03:53:34.710Z,-1.77
2024-01-16T03:56:06.366Z,-1.79
2024-01-16T03:58:32.846Z,-1.70
2024-01-16T04:00:59.497Z,-1.76
2024-01-16T04:03:26.247Z,-1.80
2024-01-16T04:05:52.813Z,-1.79
2024-01-16T04:08:19.388Z,-1.81
2024-01-16T04:10:46.011Z,-1.84
2024-01-16T04:13:12.665Z,-1.67
2024-01-16T04:15:40.527Z,-1.63
2024-01-16T04:18:07.916Z,-1.72
2024-01-16T04:20:34.578Z,-1.65
2024-01-16T04:23:03.946Z,-1.65
2024-01-16T04:25:30.321Z,-1.64
2024-01-16T04:27:57.282Z,-1.68
2024-01-16T04:30:24.498Z,-1.72
2024-01-16T04:32:51.089Z,-1.61
2024-01-16T04:35:17.804Z,-1.58
2024-01-16T04:37:44.467Z,-1.53
2024-01-16T04:40:11.478Z,-1.64
2024-01-16T04:42:37.870Z,-1.58
2024-01-16T04:45:04.671Z,-1.55
2024-01-16T04:47:31.219Z,-1.57
2024-01-16T04:49:57.817Z,-1.48
2024-01-16T04:52:24.506Z,-1.65
2024-01-16T04:54:56.116Z,-1.50
2024-01-16T04:57:30.443Z,-1.74
2024-01-16T05:00:11.646Z,-1.75
2024-01-16T05:02:38.244Z,-1.67
2024-01-16T05:05:07.356Z,-1.59
2024-01-16T05:07:41.109Z,-1.74
2024-01-16T05:10:10.392Z,-1.63
2024-01-16T05:12:36.850Z,-1.79
2024-01-16T05:15:09.749Z,-1.67
2024-01-16T05:17:36.290Z,-1.51
2024-01-16T05:20:03.689Z,-1.46
2024-01-16T05:22:30.131Z,-1.42
2024-01-16T05:24:56.552Z,-1.35
2024-01-16T05:27:22.947Z,-1.26
2024-01-16T05:29:49.865Z,-1.27
2024-01-16T05:32:16.432Z,-1.28
2024-01-16T05:34:42.967Z,-1.33
2024-01-16T05:37:09.451Z,-1.28
2024-01-16T05:39:36.061Z,-1.25
2024-01-16T05:42:02.697Z,-1.26
2024-01-16T05:44:31.944Z,-1.47
2024-01-16T05:47:02.089Z,-1.25
2024-01-16T05:49:28.678Z,-1.40
2024-01-16T05:51:55.238Z,-1.29
2024-01-16T05:54:21.693Z,-1.24
2024-01-16T05:56:48.448Z,-1.31
2024-01-16T05:59:17.660Z,-1.45
2024-01-16T06:01:44.166Z,-1.30
2024-01-16T06:04:13.542Z,-1.39
2024-01-16T06:06:41.211Z,-1.38
2024-01-16T06:09:09.881Z,-1.44
2024-01-16T06:11:36.416Z,-1.43
2024-01-16T06:14:05.998Z,-1.43
2024-01-16T06:16:33.704Z,-1.41
2024-01-16T06:19:00.422Z,-1.45
2024-01-16T06:21:33.426Z,-1.35
2024-01-16T06:24:00.275Z,-1.65
2024-01-16T06:26:26.736Z,-1.64
2024-01-16T06:28:53.467Z,-1.42
2024-01-16T06:31:20.286Z,-1.48
2024-01-16T06:33:46.799Z,-1.43
2024-01-16T06:36:13.501Z,-1.39
2024-01-16T06:38:41.073Z,-1.41
2024-01-16T06:41:07.834Z,-1.43
2024-01-16T06:43:34.426Z,-1.40
2024-01-16T06:46:01.020Z,-1.41
2024-01-16T06:48:27.870Z,-1.67
2024-01-16T06:50:57.551Z,-1.54
2024-01-16T06:53:24.164Z,-1.55
2024-01-16T06:55:50.895Z,-1.40
2024-01-16T06:58:17.354Z,-1.44
2024-01-16T07:00:44.342Z,-1.48
2024-01-16T07:03:10.906Z,-1.71
2024-01-16T07:05:37.596Z,-1.47
2024-01-16T07:08:04.383Z,-1.64
2024-01-16T07:10:30.848Z,-1.65
2024-01-16T07:12:57.271Z,-1.58
2024-01-16T07:15:23.720Z,-1.53
2024-01-16T07:17:50.331Z,-1.42
2024-01-16T07:20:17.051Z,-1.48
2024-01-16T07:22:43.587Z,-1.32
2024-01-16T07:25:10.252Z,-1.29
2024-01-16T07:27:39.123Z,-1.13
2024-01-16T07:30:06.246Z,-1.13
2024-01-16T07:32:33.216Z,-1.15
2024-01-16T07:35:08.982Z,-1.06
2024-01-16T07:37:35.547Z,-1.19
2024-01-16T07:40:04.300Z,-0.99
2024-01-16T07:42:30.839Z,-0.97
2024-01-16T07:44:57.275Z,-0.92
2024-01-16T07:47:26.632Z,-0.92
2024-01-16T07:49:53.108Z,-0.87
2024-01-16T07:52:19.539Z,-0.82
2024-01-16T07:54:45.988Z,-0.87
2024-01-16T07:57:12.381Z,-0.86
2024-01-16T07:59:39.028Z,-0.89
2024-01-16T08:02:05.833Z,-0.88
2024-01-16T08:04:35.156Z,-0.75
2024-01-16T08:07:01.781Z,-0.90
2024-01-16T08:09:28.261Z,-0.93
2024-01-16T08:11:54.751Z,-0.78
2024-01-16T08:14:24.418Z,-0.79
2024-01-16T08:16:50.790Z,-0.79
2024-01-16T08:19:17.341Z,-0.79
2024-01-16T08:21:43.880Z,-0.74
2024-01-16T08:24:10.386Z,-0.89
2024-01-16T08:26:36.838Z,-0.75
2024-01-16T08:29:06.397Z,-0.81
2024-01-16T08:31:32.926Z,-0.72
2024-01-16T08:33:59.623Z,-0.79
2024-01-16T08:36:26.136Z,-0.82
2024-01-16T08:38:52.706Z,-0.62
2024-01-16T08:41:19.406Z,-0.61
2024-01-16T08:43:45.917Z,-0.66
2024-01-16T08:46:12.435Z,-0.49
2024-01-16T08:48:38.902Z,-0.45
2024-01-16T08:51:08.730Z,-0.46
2024-01-16T08:53:35.252Z,-0.39
2024-01-16T08:56:01.770Z,-0.42
2024-01-16T08:58:28.302Z,-0.45
2024-01-16T09:00:54.773Z,-0.42
2024-01-16T09:03:21.128Z,-0.39
2024-01-16T09:05:47.749Z,-0.35
2024-01-16T09:08:14.392Z,-0.50
2024-01-16T09:10:40.871Z,-0.51
2024-01-16T09:13:13.008Z,-0.41
2024-01-16T09:15:41.680Z,-0.56
2024-01-16T09:18:08.282Z,-0.46
2024-01-16T09:20:34.912Z,-0.43
2024-01-16T09:23:01.724Z,-0.50
2024-01-16T09:25:28.112Z,-0.41
2024-01-16T09:27:54.523Z,-0.49
2024-01-16T09:30:20.933Z,-0.35
2024-01-16T09:32:47.571Z,-0.37
2024-01-16T09:35:16.461Z,-0.46
2024-01-16T09:37:42.870Z,-0.37
2024-01-16T09:40:10.044Z,-0.36
2024-01-16T09:42:36.871Z,-0.28
2024-01-16T09:45:03.945Z,-0.27
2024-01-16T09:47:32.090Z,-0.20
2024-01-16T09:50:00.884Z,-0.30
2024-01-16T09:52:29.466Z,-0.22
2024-01-16T09:54:56.867Z,-0.09
2024-01-16T09:57:26.941Z,-0.16
2024-01-16T09:59:53.821Z,-0.17
2024-01-16T10:02:20.826Z,-0.19
2024-01-16T10:04:49.698Z,-0.02
2024-01-16T10:07:17.970Z,0.15
2024-01-16T10:09:44.992Z,0.06
2024-01-16T10:12:11.600Z,-0.03
2024-01-16T10:14:39.483Z,0.09
2024-01-16T10:17:08.902Z,0.14
2024-01-16T10:19:43.360Z,0.18
2024-01-16T10:22:23.640Z,0.26
2024-01-16T10:25:05.624Z,0.28
2024-01-16T10:27:32.733Z,0.19
2024-01-16T10:29:59.874Z,0.24
2024-01-16T10:32:38.160Z,0.27
2024-01-16T10:35:14.955Z,0.20
2024-01-16T10:37:49.104Z,0.34
2024-01-16T10:40:21.991Z,0.17
2024-01-16T10:43:01.356Z,0.24
2024-01-16T10:45:28.418Z,0.36
2024-01-16T10:48:06.140Z,0.30
2024-01-16T10:50:38.121Z,0.39
2024-01-16T10:53:06.592Z,0.37
2024-01-16T10:55:50.586Z,0.44
2024-01-16T10:58:22.567Z,0.31
2024-01-16T11:00:53.054Z,0.44
2024-01-16T11:03:28.547Z,0.47
2024-01-16T11:05:58.539Z,0.58
2024-01-16T11:08:26.735Z,0.59
2024-01-16T11:10:53.464Z,0.57
2024-01-16T11:13:22.494Z,0.62
2024-01-16T11:15:51.440Z,0.75
2024-01-16T11:18:18.985Z,0.57
2024-01-16T11:21:01.982Z,0.76
2024-01-16T11:23:32.830Z,0.76
2024-01-16T11:25:59.407Z,0.80
2024-01-16T11:28:29.913Z,0.98
2024-01-16T11:30:56.760Z,0.74
2024-01-16T11:33:32.755Z,0.90
2024-01-16T11:36:00.557Z,0.87
2024-01-16T11:38:35.287Z,0.96
2024-01-16T11:41:02.097Z,0.86
2024-01-16T11:43:34.813Z,0.92
2024-01-16T11:46:19.885Z,0.75
2024-01-16T11:49:03.779Z,0.67
2024-01-16T11:51:30.681Z,0.81
2024-01-16T11:54:04.579Z,0.86
2024-01-16T11:57:20.540Z,0.90
2024-01-16T12:00:05.784Z,0.98
2024-01-16T12:02:55.017Z,1.01
2024-01-16T12:05:23.605Z,0.94
2024-01-16T12:07:52.344Z,0.91
2024-01-16T12:10:21.720Z,1.03
2024-01-16T12:12:49.449Z,1.17
2024-01-16T12:15:21.275Z,1.11
2024-01-16T12:18:02.378Z,1.01
2024-01-16T12:20:32.862Z,1.08
2024-01-16T12:23:02.065Z,1.06
2024-01-16T12:25:59.992Z,0.80
2024-01-16T12:28:24.421Z,1.02
2024-01-16T12:30:58.776Z,0.82
2024-01-16T12:33:28.907Z,0.76
2024-01-16T12:36:03.588Z,0.99
2024-01-16T12:38:30.249Z,0.94
2024-01-16T12:40:57.253Z,0.87
2024-01-16T12:43:23.832Z,1.07
2024-01-16T12:45:57.142Z,1.04
2024-01-16T12:48:26.446Z,0.97
2024-01-16T12:51:02.794Z,0.93
2024-01-16T12:53:29.977Z,0.88
2024-01-16T12:56:01.098Z,1.05
2024-01-16T12:58:34.549Z,1.33
2024-01-16T13:01:38.421Z,1.72
2024-01-16T13:04:07.258Z,1.83
2024-01-16T13:06:34.256Z,2.48
2024-01-16T13:09:09.004Z,3.03
2024-01-16T13:11:55.223Z,2.97
2024-01-16T13:14:26.167Z,2.69
2024-01-16T13:16:55.491Z,2.41
2024-01-16T13:19:23.306Z,2.75
2024-01-16T13:21:50.655Z,3.85
2024-01-16T13:24:20.118Z,3.95
2024-01-16T13:26:46.958Z,3.17
2024-01-16T13:29:14.505Z,2.83
2024-01-16T13:31:42.452Z,3.38
2024-01-16T13:34:10.418Z,3.92
2024-01-16T13:39:07.594Z,2.76
2024-01-16T13:41:34.564Z,2.61
2024-01-16T13:44:01.226Z,3.25
2024-01-16T13:46:41.942Z,3.49
2024-01-16T13:49:15.961Z,4.91
2024-01-16T13:51:45.455Z,5.16
2024-01-16T13:54:12.085Z,5.57
2024-01-16T13:56:51.727Z,5.64
2024-01-16T13:59:26.199Z,6.08
2024-01-16T14:01:52.639Z,6.27
2024-01-16T14:04:19.251Z,5.51
2024-01-16T14:07:03.165Z,5.50
2024-01-16T14:09:35.644Z,6.27
2024-01-16T14:12:02.186Z,6.15
2024-01-16T14:14:28.792Z,5.83
2024-01-16T14:17:00.993Z,5.17
2024-01-16T14:19:29.162Z,5.17
2024-01-16T14:21:55.724Z,5.30
2024-01-16T14:24:22.249Z,4.73
2024-01-16T14:26:49.690Z,2.84
2024-01-16T14:29:16.286Z,2.38
2024-01-16T14:31:42.998Z,1.81
2024-01-16T14:34:12.741Z,1.45
2024-01-16T14:36:45.693Z,1.51
2024-01-16T14:39:12.451Z,1.79
2024-01-16T14:41:38.984Z,2.06
2024-01-16T14:44:05.862Z,2.42
2024-01-16T14:46:32.549Z,2.77
2024-01-16T14:48:59.046Z,2.85
2024-01-16T14:51:25.783Z,2.85
2024-01-16T14:53:54.823Z,2.77
2024-01-16T14:56:24.757Z,2.62
2024-01-16T14:58:51.303Z,2.33
2024-01-16T15:01:20.008Z,2.28
2024-01-16T15:03:46.830Z,1.83
2024-01-16T15:06:13.526Z,1.74
2024-01-16T15:08:40.291Z,1.47
2024-01-16T15:11:07.003Z,1.51
2024-01-16T15:13:34.877Z,1.32
2024-01-16T15:16:02.850Z,1.01
2024-01-16T15:18:29.500Z,0.88
2024-01-16T15:20:56.073Z,0.65
2024-01-16T15:23:25.613Z,0.69
2024-01-16T15:25:54.181Z,0.58
2024-01-16T15:28:21.149Z,0.39
2024-01-16T15:30:47.870Z,0.46
2024-01-16T15:33:14.545Z,0.28
2024-01-16T15:35:41.224Z,0.16
2024-01-16T15:38:08.494Z,0.22
2024-01-16T15:40:37.991Z,0.13
2024-01-16T15:43:04.728Z,-0.10
2024-01-16T15:45:31.248Z,-0.18
2024-01-16T15:47:57.843Z,-0.20
2024-01-16T15:50:24.599Z,-0.18
2024-01-16T15:52:53.977Z,-0.10
2024-01-16T15:55:20.460Z,-0.30
2024-01-16T15:57:46.987Z,-0.18
2024-01-16T16:00:16.763Z,-0.32
2024-01-16T16:02:43.341Z,-0.23
2024-01-16T16:05:10.051Z,-0.61
2024-01-16T16:07:36.592Z,-0.61
2024-01-16T16:10:03.221Z,-0.60
2024-01-16T16:12:30.149Z,-0.61
2024-01-16T16:14:56.842Z,-0.73
2024-01-16T16:17:23.516Z,-0.56
2024-01-16T16:19:50.631Z,-0.59
2024-01-16T16:22:17.467Z,-0.70
2024-01-16T16:24:44.108Z,-0.74
2024-01-16T16:27:31.010Z,-0.65
2024-01-16T16:29:58.402Z,-0.69
2024-01-16T16:32:25.541Z,-0.74
2024-01-16T16:34:53.501Z,-0.75
2024-01-16T16:37:23.773Z,-0.74
2024-01-16T16:39:50.255Z,-0.77
2024-01-16T16:42:19.001Z,-0.88
2024-01-16T16:44:48.018Z,-0.99
2024-01-16T16:47:17.971Z,-1.09
2024-01-16T16:49:44.919Z,-0.96
2024-01-16T16:52:11.755Z,-0.88
2024-01-16T16:54:38.945Z,-1.13
2024-01-16T16:57:06.054Z,-0.96
2024-01-16T16:59:34.181Z,-1.08
2024-01-16T17:02:00.854Z,-1.20
2024-01-16T17:04:27.637Z,-0.96
2024-01-16T17:06:54.599Z,-0.98
2024-01-16T17:09:31.819Z,-1.14
2024-01-16T17:12:00.142Z,-1.06
2024-01-16T17:14:29.915Z,-0.98
2024-01-16T17:16:57.348Z,-1.08
2024-01-16T17:22:26.184Z,-1.31
2024-01-16T17:24:58.734Z,-1.17
2024-01-16T17:27:25.758Z,-1.11
2024-01-16T17:30:15.810Z,-1.11
2024-01-16T17:32:45.711Z,-1.12
2024-01-16T17:35:18.689Z,-1.30
2024-01-16T17:37:45.355Z,-1.21
2024-01-16T17:40:15.302Z,-1.13
2024-01-16T17:42:42.875Z,-1.30
2024-01-16T17:45:11.880Z,-1.24
2024-01-16T17:47:41.584Z,-1.42
2024-01-16T17:50:09.093Z,-1.29
2024-01-16T17:52:36.302Z,-1.21
2024-01-16T17:55:03.542Z,-1.30
2024-01-16T17:57:30.404Z,-1.25
2024-01-16T17:59:58.160Z,-1.16
2024-01-16T18:02:24.915Z,-1.25
2024-01-16T18:04:55.789Z,-1.35
2024-01-16T18:07:22.353Z,-1.22
2024-01-16T18:09:48.870Z,-1.35
2024-01-16T18:12:15.508Z,-1.29
2024-01-16T18:14:42.078Z,-1.29
2024-01-16T18:17:08.998Z,-1.50
2024-01-16T18:19:35.723Z,-1.36
2024-01-16T18:22:03.582Z,-1.23
2024-01-16T18:24:30.735Z,-1.27
2024-01-16T18:27:00.038Z,-1.47
2024-01-16T18:29:28.963Z,-1.29
2024-01-16T18:31:56.207Z,-1.42
2024-01-16T18:34:23.900Z,-1.33
2024-01-16T18:36:54.247Z,-1.39
2024-01-16T18:39:24.609Z,-1.64
2024-01-16T18:41:51.667Z,-1.62
2024-01-16T18:44:20.000Z,-1.29
2024-01-16T18:46:58.762Z,-1.47
2024-01-16T18:49:25.990Z,-1.25
2024-01-16T18:51:55.381Z,-1.43
2024-01-16T18:54:22.077Z,-1.39
2024-01-16T18:56:48.752Z,-1.36
2024-01-16T18:59:17.694Z,-1.30
2024-01-16T19:01:44.345Z,-1.30
2024-01-16T19:04:10.863Z,-1.36
2024-01-16T19:06:37.697Z,-1.33
2024-01-16T19:09:06.996Z,-1.39
2024-01-16T19:11:33.559Z,-1.27
2024-01-16T19:14:00.073Z,-1.36
2024-01-16T19:16:26.676Z,-1.37
2024-01-16T19:18:53.244Z,-1.25
2024-01-16T19:21:22.427Z,-1.28
2024-01-16T19:23:49.242Z,-1.24
2024-01-16T19:26:16.000Z,-1.03
2024-01-16T19:28:42.503Z,-1.02
2024-01-16T19:31:09.070Z,-1.04
2024-01-16T19:33:35.893Z,-0.84
2024-01-16T19:36:02.782Z,-0.96
2024-01-16T19:38:29.691Z,-1.13
2024-01-16T19:40:56.296Z,-0.95
2024-01-16T19:43:22.751Z,-0.91
2024-01-16T19:45:49.620Z,-0.85
2024-01-16T19:48:17.081Z,-0.95
2024-01-16T19:50:44.287Z,-0.82
2024-01-16T19:53:10.795Z,-0.71
2024-01-16T19:55:37.374Z,-0.64
2024-01-16T19:58:04.234Z,-0.65
2024-01-16T20:00:31.138Z,-0.90
2024-01-16T20:02:57.809Z,-0.71
2024-01-16T20:05:24.678Z,-0.74
2024-01-16T20:07:51.744Z,-0.78
2024-01-16T20:10:18.368Z,-0.70
2024-01-16T20:12:49.034Z,-0.75
2024-01-16T20:15:17.772Z,-0.61
2024-01-16T20:17:45.207Z,-0.59
2024-01-16T20:20:13.458Z,-0.62
2024-01-16T20:22:40.810Z,-0.58
2024-01-16T20:25:07.502Z,-0.61
2024-01-16T20:27:36.655Z,-0.67
2024-01-16T20:30:03.720Z,-0.71
2024-01-16T20:32:33.521Z,-0.61
2024-01-16T20:35:00.090Z,-0.58
2024-01-16T20:37:27.504Z,-0.51
2024-01-16T20:39:54.164Z,-0.72
2024-01-16T20:42:20.812Z,-0.78
2024-01-16T20:44:47.372Z,-0.70
2024-01-16T20:47:13.734Z,-0.59
2024-01-16T20:49:40.295Z,-0.71
2024-01-16T20:52:10.150Z,-0.67
2024-01-16T20:54:40.080Z,-0.76
2024-01-16T20:57:06.940Z,-0.92
2024-01-16T20:59:33.600Z,-0.92
2024-01-16T21:02:00.332Z,-0.75
2024-01-16T21:04:27.155Z,-0.72
2024-01-16T21:06:55.227Z,-0.98
2024-01-16T21:09:21.807Z,-1.00
2024-01-16T21:11:57.504Z,-1.01
2024-01-16T21:14:24.635Z,-0.87
2024-01-16T21:16:51.235Z,-0.94
2024-01-16T21:19:21.167Z,-1.00
2024-01-16T21:21:50.674Z,-1.00
2024-01-16T21:24:17.118Z,-1.17
2024-01-16T21:26:48.221Z,-1.26
2024-01-16T21:29:14.919Z,-1.17
2024-01-16T21:31:49.071Z,-1.33
2024-01-16T21:34:16.631Z,-1.23
2024-01-16T21:36:45.000Z,-1.29
2024-01-16T21:39:12.477Z,-1.19
2024-01-16T21:41:39.558Z,-1.29
2024-01-16T21:44:06.174Z,-1.29
2024-01-16T21:46:33.195Z,-1.28
2024-01-16T21:49:00.325Z,-1.19
2024-01-16T21:51:30.058Z,-1.21
2024-01-16T21:53:56.702Z,-1.29
2024-01-16T21:56:23.360Z,-1.33
2024-01-16T21:58:50.178Z,-1.42
2024-01-16T22:01:17.299Z,-1.48
2024-01-16T22:03:44.392Z,-1.40
2024-01-16T22:06:11.391Z,-1.39
2024-01-16T22:08:37.990Z,-1.53
2024-01-16T22:11:04.933Z,-1.52
2024-01-16T22:13:33.818Z,-1.58
2024-01-16T22:16:00.459Z,-1.47
2024-01-16T22:18:27.029Z,-1.57
2024-01-16T22:20:53.549Z,-1.41
2024-01-16T22:23:20.105Z,-1.54
2024-01-16T22:25:46.808Z,-1.47
2024-01-16T22:28:13.279Z,-1.44
2024-01-16T22:30:40.298Z,-1.39
2024-01-16T22:33:06.779Z,-1.42
2024-01-16T22:35:33.352Z,-1.43
2024-01-16T22:38:02.158Z,-1.34
2024-01-16T22:40:31.523Z,-1.48
2024-01-16T22:42:58.067Z,-1.40
2024-01-16T22:45:27.489Z,-1.53
2024-01-16T22:47:54.071Z,-1.45
2024-01-16T22:50:20.721Z,-1.34
2024-01-16T22:52:47.346Z,-1.56
2024-01-16T22:55:13.968Z,-1.59
2024-01-16T22:57:40.671Z,-1.65
2024-01-16T23:00:08.976Z,-1.53
2024-01-16T23:02:35.415Z,-1.72
2024-01-16T23:05:01.873Z,-1.54
2024-01-16T23:07:28.418Z,-1.61
2024-01-16T23:09:54.810Z,-1.57
2024-01-16T23:12:22.284Z,-1.58
2024-01-16T23:14:51.657Z,-1.58
2024-01-16T23:17:18.152Z,-1.60
2024-01-16T23:19:45.141Z,-1.66
2024-01-16T23:22:11.804Z,-1.63
2024-01-16T23:24:38.304Z,-1.61
2024-01-16T23:27:07.321Z,-1.67
2024-01-16T23:29:33.988Z,-1.68
2024-01-16T23:32:00.547Z,-1.74
2024-01-16T23:34:27.103Z,-1.52
2024-01-16T23:36:53.652Z,-1.58
2024-01-16T23:39:20.064Z,-1.51
2024-01-16T23:41:48.806Z,-1.62
2024-01-16T23:44:15.223Z,-1.58
2024-01-16T23:46:41.660Z,-1.62
2024-01-16T23:49:09.454Z,-1.68
2024-01-16T23:51:35.845Z,-1.54
2024-01-16T23:54:02.457Z,-1.67
2024-01-16T23:56:29.155Z,-1.56
2024-01-16T23:58:55.576Z,-1.55
